Port Chester, NY (10573)

2:14 PM EDT on June 02, 2015 (GMT -0400)
Lyon Park | | Change Station
CLOSE
Current Station
Personal Weather Station
Location: Port Chester, NY
Elevation: 102 ft
Nearby Weather Stations

Elev 102 ft 41.01 °N, 73.67 °W | Updated 4 seconds ago

Rain
Rain
53.4 °F
Feels Like 53.4 °F
N
0.0
Wind Variable Wind from West
Gusts 0.0 mph

Today
High -- | Low -- °F
--% Chance of Precip.
Yesterday
High -- | Low -- °F
Precip. -- in
5:24 AM 8:21 PM
Full, 100% visible
Pressure 30.15 in
Visibility 2.5 miles
Clouds Mostly Cloudy 800 ft
Overcast 2000 ft
Dew Point 52 °F
Humidity 96%
Rainfall 0.25 in
Snow Depth Not available.
UV 2.0 out of 12
Pollen .50 out of 12
Air Quality Not available.
Flu Activity Sporadic
METAR KHPN 021756Z 01006KT 2 1/2SM -RA BR BKN008 OVC020 11/09 A3014 RMK AO2 SLP209 P0011 60015 T01110094 10111 20094 58001

More Conditions Fewer Conditions

Pressure 30.15 in
Visibility 2.5 miles
Clouds Mostly Cloudy 800 ft
Overcast 2000 ft
Dew Point 52 °F
Humidity 96%
Rainfall 0.25 in
Snow Depth Not available.
UV 2.0 out of 12
Pollen .50 out of 12
Air Quality Not available.
Flu Activity Sporadic
METAR KHPN 021756Z 01006KT 2 1/2SM -RA BR BKN008 OVC020 11/09 A3014 RMK AO2 SLP209 P0011 60015 T01110094 10111 20094 58001

More Conditions Fewer Conditions

10-Day Weather Forecast

×

Almanac

Astronomy

Jun. 02, 2015 Rise Set
Actual Time
Civil Twilight
Nautical Twilight
Astronomical Twilight
Moon
Length of Visible Light
Length of Day
Tomorrow will be .
, % of the Moon is Illuminated

Today's Extremes

State Highs State Lows

Community

WunderPhotos

Upload Photos

1,825,993 photos uploaded!

WunderBlogs® & News

Nearby

Air Quality

  Air Quality AQ Index Pollutant
Not available.

Snow Depth

Station Depth Elevation

Earthquake Activity

City Distance Mag. Time & Date
Minimum magnitude displayed is 2.5.

Coastal Water Temperatures

Place Temperature

Stations

Nearby Weather Stations

Station Location Temp. Windchill Dew Point Humidity Wind Precip. Elev Updated Type